Time;durP1;ratioP1;P1;durP2;ratioP2;P2;SDS_P1;SDS_P2;PMS_P1;PMS_P2;Temp;Humidity;BMP_temperature;BMP_pressure;BME280_temperature;BME280_humidity;BME280_pressure;Samples;Min_cycle;Max_cycle;Signal;HPM_P1;HPM_P2
2022/07/22 00:00:59;;;;;;;9.20;3.65;;;;;;;19.14;52.02;99124.14;1704270;84;21035;-86
2022/07/22 00:03:26;;;;;;;7.47;3.75;;;;;;;19.05;53.37;99118.49;1703543;84;21054;-86
2022/07/22 00:05:52;;;;;;;14.68;3.90;;;;;;;18.96;53.63;99122.14;1705344;84;21023;-86
2022/07/22 00:08:19;;;;;;;10.78;4.10;;;;;;;18.87;54.90;99119.59;1680246;84;21066;-85
2022/07/22 00:10:46;;;;;;;10.20;3.87;;;;;;;18.80;55.24;99123.06;1677031;86;21034;-86
2022/07/22 00:13:13;;;;;;;8.08;3.65;;;;;;;18.76;55.03;99118.88;1668572;86;21012;-86
2022/07/22 00:15:40;;;;;;;8.58;3.90;;;;;;;18.74;54.00;99123.84;1658694;86;21030;-85
2022/07/22 00:18:07;;;;;;;12.73;3.77;;;;;;;18.71;53.25;99126.19;1681150;84;21094;-86
2022/07/22 00:20:34;;;;;;;6.65;3.37;;;;;;;18.66;56.57;99122.96;1691129;84;20959;-86
2022/07/22 00:23:01;;;;;;;9.78;3.60;;;;;;;18.61;54.65;99118.45;1704814;84;20991;-86
2022/07/22 00:25:28;;;;;;;10.45;3.40;;;;;;;18.56;55.20;99117.41;1705181;84;21007;-85
2022/07/22 00:27:55;;;;;;;6.65;3.27;;;;;;;18.52;54.24;99118.48;1704198;84;21034;-85
2022/07/22 00:30:22;;;;;;;7.05;3.42;;;;;;;18.45;53.24;99125.90;1702632;84;21043;-85
2022/07/22 00:32:49;;;;;;;7.40;3.67;;;;;;;18.42;55.37;99129.17;1699538;84;21353;-85
2022/07/22 00:35:16;;;;;;;8.20;3.58;;;;;;;18.34;55.92;99129.60;1678226;85;21031;-85
2022/07/22 00:37:42;;;;;;;7.95;3.70;;;;;;;18.30;52.88;99135.97;1704771;84;20995;-84
2022/07/22 00:40:10;;;;;;;9.20;3.52;;;;;;;18.25;56.08;99130.14;1696403;84;21043;-85
2022/07/22 00:42:37;;;;;;;7.55;3.50;;;;;;;18.23;52.91;99133.32;1690378;85;21023;-85
2022/07/22 00:45:06;;;;;;;13.28;3.77;;;;;;;18.19;54.04;99140.53;1702594;84;21087;-85
2022/07/22 00:47:34;;;;;;;7.87;3.85;;;;;;;18.17;54.21;99131.03;1702320;84;21011;-85
2022/07/22 00:50:00;;;;;;;9.40;3.65;;;;;;;18.15;55.13;99140.33;1690657;84;20987;-86
2022/07/22 00:52:28;;;;;;;9.53;3.80;;;;;;;18.13;54.49;99132.14;1649919;86;21107;-85
2022/07/22 00:54:56;;;;;;;8.88;3.67;;;;;;;18.13;54.29;99142.67;1689785;84;21331;-84
2022/07/22 00:57:23;;;;;;;7.00;3.40;;;;;;;18.10;55.14;99139.72;1648980;87;21580;-85
2022/07/22 00:59:49;;;;;;;6.53;3.30;;;;;;;18.05;55.24;99145.24;1687097;84;21142;-85
2022/07/22 01:02:16;;;;;;;8.70;3.60;;;;;;;18.00;52.48;99143.31;1673375;85;21007;-85
2022/07/22 01:04:43;;;;;;;6.20;3.55;;;;;;;17.95;55.62;99144.05;1651063;86;21009;-85
2022/07/22 01:07:10;;;;;;;7.58;3.83;;;;;;;17.89;54.50;99153.59;1697843;83;21004;-84
2022/07/22 01:09:37;;;;;;;9.80;3.40;;;;;;;17.84;54.35;99155.61;1697691;84;21039;-86
2022/07/22 01:12:04;;;;;;;9.25;3.58;;;;;;;17.81;55.45;99157.92;1698951;84;21015;-86
2022/07/22 01:14:31;;;;;;;10.40;3.90;;;;;;;17.78;53.29;99156.75;1705222;84;21027;-86
2022/07/22 01:16:58;;;;;;;10.58;3.40;;;;;;;17.77;56.14;99158.17;1705149;84;20994;-84
2022/07/22 01:19:24;;;;;;;9.43;3.77;;;;;;;17.77;54.66;99164.75;1704151;84;21144;-86
2022/07/22 01:21:51;;;;;;;8.93;3.17;;;;;;;17.76;55.95;99164.34;1689970;84;20991;-85
2022/07/22 01:24:18;;;;;;;10.98;3.40;;;;;;;17.75;55.35;99162.67;1676746;86;21083;-86
2022/07/22 01:26:45;;;;;;;9.88;3.55;;;;;;;17.72;56.27;99169.39;1701129;84;20990;-84
2022/07/22 01:29:12;;;;;;;10.32;3.42;;;;;;;17.66;54.68;99170.56;1705020;84;21023;-86
2022/07/22 01:31:38;;;;;;;6.65;3.60;;;;;;;17.60;54.26;99170.41;1694733;84;21157;-85
2022/07/22 01:34:06;;;;;;;7.95;3.62;;;;;;;17.51;54.74;99173.55;1710280;83;21034;-86
2022/07/22 01:36:34;;;;;;;10.68;3.52;;;;;;;17.46;56.28;99174.23;1720861;82;21006;-86
2022/07/22 01:39:01;;;;;;;7.90;4.20;;;;;;;17.40;56.40;99177.19;1721350;82;20980;-85
2022/07/22 01:41:28;;;;;;;7.67;3.00;;;;;;;17.35;56.19;99171.30;1750849;82;21029;-85
2022/07/22 01:43:54;;;;;;;9.65;3.45;;;;;;;17.32;56.82;99172.80;1729268;82;21068;-86
2022/07/22 01:46:23;;;;;;;15.63;3.83;;;;;;;17.26;54.97;99165.60;1722854;82;21034;-85
2022/07/22 01:48:51;;;;;;;11.00;3.27;;;;;;;17.23;55.39;99170.16;1725327;83;20988;-85
2022/07/22 01:51:19;;;;;;;15.28;3.67;;;;;;;17.23;56.61;99171.47;1721004;83;21025;-85
2022/07/22 01:53:46;;;;;;;10.60;3.80;;;;;;;17.22;55.93;99165.38;1714965;83;21081;-85
2022/07/22 01:56:14;;;;;;;9.05;3.75;;;;;;;17.21;55.95;99166.32;1720310;83;21093;-84
2022/07/22 01:58:43;;;;;;;9.58;3.25;;;;;;;17.20;54.06;99169.02;1712132;83;21114;-85
2022/07/22 02:01:10;;;;;;;7.67;3.65;;;;;;;17.15;57.34;99170.58;1720451;83;21061;-85
2022/07/22 02:03:37;;;;;;;9.78;4.00;;;;;;;17.14;56.29;99166.23;1719879;82;21030;-85
2022/07/22 02:06:05;;;;;;;18.35;3.90;;;;;;;17.16;57.59;99172.26;1720906;83;21013;-85
2022/07/22 02:08:32;;;;;;;10.53;4.28;;;;;;;17.11;57.67;99176.91;1705358;83;21006;-85
2022/07/22 02:11:17;;;;;;;10.03;4.08;;;;;;;17.11;57.47;99172.98;1716242;83;21133;-86
2022/07/22 02:13:46;;;;;;;7.83;3.60;;;;;;;17.07;55.31;99175.38;1719441;83;21006;-84
2022/07/22 02:16:13;;;;;;;10.05;3.87;;;;;;;17.04;56.74;99177.66;1720913;83;21054;-85
2022/07/22 02:18:40;;;;;;;10.48;3.90;;;;;;;17.02;57.40;99172.95;1721019;82;21039;-85
2022/07/22 02:21:08;;;;;;;9.63;3.60;;;;;;;16.97;56.37;99171.04;1720997;83;21041;-86
2022/07/22 02:23:35;;;;;;;11.88;4.10;;;;;;;16.96;55.70;99175.89;1741922;82;21078;-86
2022/07/22 02:26:02;;;;;;;8.90;3.75;;;;;;;16.94;57.02;99176.44;1720950;83;21086;-86
2022/07/22 02:28:29;;;;;;;7.92;3.20;;;;;;;16.93;57.32;99172.13;1720845;83;21047;-85
2022/07/22 02:30:56;;;;;;;11.83;3.50;;;;;;;16.90;56.90;99173.11;1720918;83;21094;-86
2022/07/22 02:33:23;;;;;;;6.78;3.30;;;;;;;16.86;58.48;99168.94;1721044;83;21025;-86
2022/07/22 02:35:50;;;;;;;10.78;3.33;;;;;;;16.85;57.14;99171.19;1717219;83;21042;-86
2022/07/22 02:38:16;;;;;;;11.65;3.77;;;;;;;16.85;58.37;99171.19;1694286;83;21584;-85
2022/07/22 02:40:43;;;;;;;7.92;3.20;;;;;;;16.82;57.35;99171.80;1718074;83;20979;-86
2022/07/22 02:43:10;;;;;;;7.80;3.25;;;;;;;16.78;57.18;99174.16;1723329;83;21042;-85
2022/07/22 02:45:36;;;;;;;9.25;3.00;;;;;;;16.73;55.87;99176.14;1688175;85;21127;-85
2022/07/22 02:48:04;;;;;;;9.03;3.72;;;;;;;16.69;55.28;99175.44;1693488;85;21030;-85
2022/07/22 02:50:37;;;;;;;8.78;3.15;;;;;;;16.64;56.89;99186.64;1677274;85;21054;-85
2022/07/22 02:53:04;;;;;;;6.45;3.08;;;;;;;16.65;57.29;99188.33;1665676;86;21017;-85
2022/07/22 02:55:33;;;;;;;9.95;3.77;;;;;;;16.64;56.70;99187.48;1676544;85;20983;-85
2022/07/22 02:58:06;;;;;;;9.58;3.67;;;;;;;16.63;57.69;99184.92;1672694;85;21002;-85
2022/07/22 03:00:34;;;;;;;7.60;3.17;;;;;;;16.59;57.57;99183.38;1692733;85;21038;-84
2022/07/22 03:03:00;;;;;;;7.20;3.67;;;;;;;16.56;58.21;99179.14;1680717;85;21002;-84
2022/07/22 03:05:27;;;;;;;8.28;3.85;;;;;;;16.55;60.77;99191.85;1664926;85;21049;-85
2022/07/22 03:07:55;;;;;;;10.15;4.05;;;;;;;16.52;59.40;99195.11;1692968;83;21032;-85
2022/07/22 03:10:22;;;;;;;9.85;3.58;;;;;;;16.49;59.24;99193.02;1695307;83;21089;-84
2022/07/22 03:12:49;;;;;;;8.83;3.42;;;;;;;16.44;58.49;99192.85;1694962;82;21038;-83
2022/07/22 03:15:17;;;;;;;8.18;3.60;;;;;;;16.38;59.22;99190.05;1752349;82;21107;-84
2022/07/22 03:17:44;;;;;;;13.13;4.53;;;;;;;16.35;60.80;99196.73;1752115;82;20988;-84
2022/07/22 03:20:12;;;;;;;18.55;5.17;;;;;;;16.30;59.39;99191.72;1723701;82;21619;-84
2022/07/22 03:22:39;;;;;;;12.68;4.12;;;;;;;16.22;59.94;99199.57;1722681;83;21020;-85
2022/07/22 03:25:06;;;;;;;17.12;4.50;;;;;;;16.14;59.92;99203.02;1722488;83;20998;-85
2022/07/22 03:27:33;;;;;;;7.08;3.27;;;;;;;16.06;60.79;99197.65;1712556;83;21014;-84
2022/07/22 03:30:00;;;;;;;9.35;3.87;;;;;;;16.04;60.29;99204.73;1693882;85;21066;-85
2022/07/22 03:32:27;;;;;;;15.63;4.00;;;;;;;15.98;60.91;99203.70;1700072;83;21546;-85
2022/07/22 03:34:53;;;;;;;12.25;4.12;;;;;;;15.97;60.76;99200.68;1693513;82;21055;-85
2022/07/22 03:37:21;;;;;;;10.93;4.72;;;;;;;15.99;61.72;99208.02;1717106;83;21551;-85
2022/07/22 03:39:48;;;;;;;10.30;4.20;;;;;;;16.05;60.79;99206.89;1690642;85;21050;-86
2022/07/22 03:42:15;;;;;;;16.05;4.65;;;;;;;16.10;60.60;99212.32;1691774;83;21109;-85
2022/07/22 03:44:46;;;;;;;10.03;4.00;;;;;;;16.14;59.58;99216.13;1712712;83;21042;-84
2022/07/22 03:47:19;;;;;;;9.88;4.60;;;;;;;16.15;60.84;99212.56;1711890;83;21041;-86
2022/07/22 03:49:46;;;;;;;;;;;;;;;16.14;62.51;99216.13;1711829;82;21062;-84
2022/07/22 03:52:13;;;;;;;10.28;4.60;;;;;;;16.12;60.17;99208.80;1720490;83;20114;-84
2022/07/22 03:54:43;;;;;;;10.32;4.00;;;;;;;16.08;61.41;99218.09;1701238;83;21036;-84
2022/07/22 03:57:10;;;;;;;8.93;3.80;;;;;;;16.08;60.36;99218.09;1708407;83;21002;-85
2022/07/22 03:59:37;;;;;;;11.20;4.15;;;;;;;16.07;60.05;99228.18;1720873;83;21091;-85
2022/07/22 04:02:04;;;;;;;11.88;4.05;;;;;;;16.07;59.60;99228.18;1718710;83;21004;-85
2022/07/22 04:04:31;;;;;;;6.60;3.80;;;;;;;16.11;60.58;99227.59;1710202;82;20995;-85
2022/07/22 04:06:58;;;;;;;13.48;4.45;;;;;;;16.20;60.71;99220.62;1745962;82;21042;-84
2022/07/22 04:09:27;;;;;;;7.85;3.90;;;;;;;16.29;60.53;99212.33;1744251;82;21102;-85
2022/07/22 04:11:53;;;;;;;8.25;3.80;;;;;;;16.37;60.12;99222.44;1719691;83;21075;-84
2022/07/22 04:14:22;;;;;;;13.58;4.00;;;;;;;16.45;60.18;99220.77;1718746;83;21014;-83
2022/07/22 04:16:49;;;;;;;11.15;3.90;;;;;;;16.54;58.59;99215.10;1718932;82;21053;-84
2022/07/22 04:19:16;;;;;;;11.50;4.33;;;;;;;16.58;58.44;99217.13;1716973;83;21093;-84
2022/07/22 04:21:50;;;;;;;13.50;4.47;;;;;;;16.66;59.18;99221.54;1718461;83;22039;-84
2022/07/22 04:24:18;;;;;;;14.80;4.80;;;;;;;16.76;59.56;99224.11;1720437;83;21012;-86
2022/07/22 04:26:45;;;;;;;14.73;4.78;;;;;;;16.85;59.73;99226.77;1715377;82;21013;-84
2022/07/22 04:29:11;;;;;;;16.40;4.47;;;;;;;16.95;61.30;99228.05;1719164;82;21027;-84
2022/07/22 04:31:39;;;;;;;14.63;4.90;;;;;;;17.03;59.63;99223.70;1711102;82;21172;-84
2022/07/22 04:34:07;;;;;;;13.78;4.37;;;;;;;17.11;59.35;99220.25;1748053;82;21066;-82
2022/07/22 04:36:34;;;;;;;10.63;4.67;;;;;;;17.21;59.54;99222.80;1707329;83;21007;-84
2022/07/22 04:39:01;;;;;;;19.00;4.67;;;;;;;17.30;58.37;99226.27;1678921;84;21101;-84
2022/07/22 04:41:29;;;;;;;14.93;5.35;;;;;;;17.41;58.19;99234.09;1694641;84;21042;-85
2022/07/22 04:43:55;;;;;;;17.60;6.58;;;;;;;17.49;59.73;99231.91;1689085;84;21014;-84
2022/07/22 04:46:24;;;;;;;30.95;15.13;;;;;;;17.56;58.79;99235.06;1695289;84;21006;-84
2022/07/22 04:48:51;;;;;;;32.55;12.95;;;;;;;17.62;58.47;99237.38;1697134;84;21023;-85
2022/07/22 04:51:17;;;;;;;19.65;8.23;;;;;;;17.67;57.83;99242.78;1704009;84;21003;-84
2022/07/22 04:53:45;;;;;;;19.30;8.78;;;;;;;17.73;58.64;99234.20;1704500;84;21029;-84
2022/07/22 04:56:13;;;;;;;13.15;4.62;;;;;;;17.81;57.43;99236.81;1704585;84;21031;-84
2022/07/22 04:58:39;;;;;;;11.25;4.75;;;;;;;17.88;56.38;99231.63;1704731;84;20990;-84
2022/07/22 05:01:06;;;;;;;14.93;4.53;;;;;;;17.87;56.61;99241.77;1692892;84;21137;-84
2022/07/22 05:03:34;;;;;;;14.20;4.70;;;;;;;17.95;56.51;99240.06;1697848;84;21094;-84
2022/07/22 05:06:01;;;;;;;13.13;5.53;;;;;;;18.02;56.31;99240.09;1696572;84;21088;-84
2022/07/22 05:08:29;;;;;;;11.20;4.20;;;;;;;18.09;55.97;99242.80;1698884;84;21054;-85
2022/07/22 05:10:56;;;;;;;12.15;5.00;;;;;;;18.20;55.75;99240.05;1684312;84;20991;-86
2022/07/22 05:13:23;;;;;;;13.58;4.47;;;;;;;18.32;55.74;99236.73;1698121;84;21030;-86
2022/07/22 05:15:51;;;;;;;8.60;4.03;;;;;;;18.43;55.64;99244.06;1701417;84;21034;-86
2022/07/22 05:18:18;;;;;;;6.95;3.77;;;;;;;18.47;54.87;99238.54;1711570;84;21059;-86
2022/07/22 05:20:45;;;;;;;35.80;17.50;;;;;;;18.53;54.70;99243.09;1693562;84;21050;-86
2022/07/22 05:23:12;;;;;;;14.23;4.72;;;;;;;18.59;54.97;99234.85;1692346;84;21023;-86
2022/07/22 05:25:40;;;;;;;12.00;4.40;;;;;;;18.72;54.34;99241.58;1705332;84;21005;-87
2022/07/22 05:28:06;;;;;;;9.78;4.35;;;;;;;18.79;54.06;99247.77;1699854;84;21058;-85
2022/07/22 05:30:35;;;;;;;12.53;4.62;;;;;;;18.92;54.18;99248.39;1681056;85;20998;-85
2022/07/22 05:33:03;;;;;;;14.07;4.37;;;;;;;19.04;53.86;99247.71;1683841;84;20995;-87
2022/07/22 05:35:32;;;;;;;12.95;4.10;;;;;;;19.16;53.73;99243.48;1684749;84;21111;-86
2022/07/22 05:37:58;;;;;;;16.10;4.87;;;;;;;19.28;53.61;99247.59;1711177;84;21028;-86
2022/07/22 05:40:25;;;;;;;11.88;4.62;;;;;;;19.39;53.06;99246.11;1708221;84;21042;-85
2022/07/22 05:42:52;;;;;;;15.75;6.47;;;;;;;19.44;52.51;99250.17;1667526;84;21551;-86
2022/07/22 05:45:19;;;;;;;12.15;5.20;;;;;;;19.52;52.27;99253.68;1711199;84;20987;-86
2022/07/22 05:47:46;;;;;;;11.25;4.12;;;;;;;19.61;52.16;99250.48;1708334;84;20990;-87
2022/07/22 05:50:14;;;;;;;18.87;4.50;;;;;;;19.71;52.02;99254.77;1704857;84;21094;-86
2022/07/22 05:52:42;;;;;;;8.15;3.98;;;;;;;19.83;51.80;99259.77;1711245;84;21113;-87
2022/07/22 05:55:10;;;;;;;11.53;4.40;;;;;;;19.95;51.69;99253.73;1695790;84;21019;-86
2022/07/22 05:57:37;;;;;;;8.83;3.75;;;;;;;20.03;51.56;99242.72;1665685;84;21015;-87
2022/07/22 06:00:06;;;;;;;11.63;3.83;;;;;;;20.19;50.93;99249.21;1699452;84;21111;-86
2022/07/22 06:02:34;;;;;;;9.70;4.20;;;;;;;20.30;50.62;99250.72;1710283;84;20998;-86
2022/07/22 06:05:02;;;;;;;11.48;3.83;;;;;;;20.41;50.60;99252.67;1702782;84;21066;-86
2022/07/22 06:07:28;;;;;;;12.05;4.22;;;;;;;20.53;50.49;99248.41;1671781;85;21058;-86
2022/07/22 06:09:57;;;;;;;10.60;4.22;;;;;;;20.64;49.90;99243.33;1682624;84;21063;-86
2022/07/22 06:12:23;;;;;;;11.00;3.77;;;;;;;20.74;49.37;99251.52;1659155;87;21007;-84
2022/07/22 06:14:50;;;;;;;9.20;3.27;;;;;;;20.83;48.94;99253.54;1687748;84;21023;-84
2022/07/22 06:17:17;;;;;;;17.45;4.40;;;;;;;20.94;48.90;99253.70;1708812;83;21011;-84
2022/07/22 06:19:43;;;;;;;11.83;4.17;;;;;;;21.07;48.84;99249.79;1711435;83;20971;-85
2022/07/22 06:22:11;;;;;;;10.03;4.08;;;;;;;21.20;48.47;99242.72;1707590;83;21010;-85
2022/07/22 06:24:38;;;;;;;12.78;3.75;;;;;;;21.33;48.17;99252.02;1716573;83;21018;-80
2022/07/22 06:27:06;;;;;;;8.80;3.33;;;;;;;21.47;47.46;99260.83;1699800;84;21035;-80
2022/07/22 06:29:32;;;;;;;9.40;3.65;;;;;;;21.56;47.04;99257.09;1711051;83;21084;-80
2022/07/22 06:31:59;;;;;;;8.90;3.80;;;;;;;21.67;46.55;99256.86;1706201;83;20995;-86
2022/07/22 06:34:26;;;;;;;8.33;4.00;;;;;;;21.80;46.63;99260.34;1664338;85;21052;-85
2022/07/22 06:36:58;;;;;;;10.08;4.05;;;;;;;21.92;46.32;99257.32;1718837;82;21627;-83
2022/07/22 06:39:25;;;;;;;11.75;4.08;;;;;;;22.01;46.03;99251.40;1671665;83;21144;-83
2022/07/22 06:42:08;;;;;;;9.58;3.83;;;;;;;22.10;45.59;99249.89;1671374;85;21034;-83
2022/07/22 06:44:49;;;;;;;16.15;4.25;;;;;;;22.21;45.37;99248.67;1687951;83;21081;-81
2022/07/22 06:47:35;;;;;;;15.10;5.12;;;;;;;22.32;45.17;99248.80;1688273;83;21054;-82
2022/07/22 06:50:06;;;;;;;11.63;4.70;;;;;;;22.38;44.90;99248.36;1721736;82;20979;-83
2022/07/22 06:52:33;;;;;;;10.25;4.75;;;;;;;22.51;44.59;99243.50;1719545;82;21157;-82
2022/07/22 06:55:00;;;;;;;13.03;4.08;;;;;;;22.65;44.09;99239.36;1722732;82;21064;-81
2022/07/22 06:57:29;;;;;;;8.88;3.00;;;;;;;22.79;43.72;99244.49;1722274;82;21050;-82
2022/07/22 06:59:55;;;;;;;9.23;2.98;;;;;;;22.93;42.75;99246.13;1730123;82;21172;-83
2022/07/22 07:02:22;;;;;;;5.90;2.90;;;;;;;23.03;41.58;99240.53;1728361;82;21029;-82
2022/07/22 07:04:50;;;;;;;6.17;2.95;;;;;;;23.10;40.38;99241.41;1690860;83;21078;-82
2022/07/22 07:07:17;;;;;;;11.08;3.37;;;;;;;23.23;41.41;99235.55;1716208;82;21104;-82
2022/07/22 07:09:48;;;;;;;5.30;2.72;;;;;;;23.33;41.32;99235.70;1727758;82;21534;-85
2022/07/22 07:12:20;;;;;;;4.40;2.40;;;;;;;23.44;41.28;99239.73;1732552;82;21085;-84
2022/07/22 07:15:07;;;;;;;7.47;2.27;;;;;;;23.58;40.66;99246.14;1724722;82;21058;-84
2022/07/22 07:17:36;;;;;;;5.37;2.70;;;;;;;23.69;38.31;99248.45;1721531;82;21073;-84
2022/07/22 07:20:06;;;;;;;4.80;2.80;;;;;;;23.77;38.59;99242.06;1718934;82;21006;-83
2022/07/22 07:22:34;;;;;;;5.30;2.62;;;;;;;23.89;38.98;99245.12;1731215;82;21028;-83
2022/07/22 07:25:05;;;;;;;6.03;2.75;;;;;;;24.01;39.18;99242.86;1720194;82;21025;-84
2022/07/22 07:27:32;;;;;;;4.60;2.50;;;;;;;24.15;38.34;99240.91;1707631;82;21020;-83
2022/07/22 07:30:00;;;;;;;7.10;2.20;;;;;;;24.25;37.89;99239.69;1727112;82;21148;-83
2022/07/22 07:32:27;;;;;;;5.87;2.80;;;;;;;24.35;36.92;99246.83;1718795;82;21065;-81
2022/07/22 07:34:54;;;;;;;4.67;2.22;;;;;;;24.49;36.88;99244.85;1722403;82;21026;-83
2022/07/22 07:37:21;;;;;;;4.53;2.15;;;;;;;24.63;36.95;99249.95;1734080;82;21046;-82
2022/07/22 07:39:48;;;;;;;3.70;1.90;;;;;;;24.72;35.21;99246.53;1721720;82;21062;-83
2022/07/22 07:42:15;;;;;;;4.22;2.10;;;;;;;24.85;34.57;99248.17;1740663;82;21377;-82
2022/07/22 07:44:42;;;;;;;6.47;2.77;;;;;;;24.95;34.63;99257.95;1696128;83;21028;-82
2022/07/22 07:47:08;;;;;;;20.08;9.45;;;;;;;25.04;34.92;99251.52;1691326;82;21059;-82
2022/07/22 07:49:35;;;;;;;11.97;4.55;;;;;;;25.16;35.00;99255.31;1682512;85;21067;-81
2022/07/22 07:52:02;;;;;;;8.00;2.30;;;;;;;25.27;32.83;99258.92;1686512;83;21027;-81
2022/07/22 07:54:29;;;;;;;5.62;1.90;;;;;;;25.33;31.41;99251.78;1690693;83;21188;-82
2022/07/22 07:56:56;;;;;;;7.28;1.90;;;;;;;25.39;32.31;99256.59;1701113;83;21089;-82
2022/07/22 07:59:23;;;;;;;5.22;2.15;;;;;;;25.48;31.47;99254.46;1689140;83;21055;-80
2022/07/22 08:01:51;;;;;;;5.10;2.10;;;;;;;25.56;31.43;99254.66;1692526;83;21017;-81
2022/07/22 08:04:17;;;;;;;4.97;2.30;;;;;;;25.63;32.26;99252.83;1685291;83;20975;-83
2022/07/22 08:06:44;;;;;;;4.70;1.98;;;;;;;25.70;31.77;99257.47;1667968;85;21057;-83
2022/07/22 08:09:12;;;;;;;6.55;2.37;;;;;;;25.75;32.22;99257.94;1685739;83;21168;-81
2022/07/22 08:11:41;;;;;;;5.30;2.12;;;;;;;25.81;32.17;99252.58;1661855;85;20982;-82
2022/07/22 08:14:15;;;;;;;5.75;2.37;;;;;;;25.86;32.11;99246.34;1650924;85;21009;-82
2022/07/22 08:16:46;;;;;;;5.75;2.30;;;;;;;25.94;32.37;99245.25;1724051;82;21011;-83
2022/07/22 08:19:13;;;;;;;7.25;2.05;;;;;;;26.02;32.18;99247.72;1723112;82;21104;-83
2022/07/22 08:21:41;;;;;;;9.55;2.27;;;;;;;26.12;32.46;99252.59;1717991;82;21022;-83
2022/07/22 08:24:18;;;;;;;5.25;2.30;;;;;;;26.20;30.43;99248.77;1720887;82;21025;-83
2022/07/22 08:26:45;;;;;;;5.85;2.05;;;;;;;26.33;32.08;99240.06;1717118;82;20984;-81
2022/07/22 08:29:12;;;;;;;6.58;2.00;;;;;;;26.43;31.59;99233.42;1719393;82;21006;-84
2022/07/22 08:31:40;;;;;;;4.10;1.90;;;;;;;26.53;31.75;99241.45;1726739;82;20993;-83
2022/07/22 08:34:08;;;;;;;10.63;2.17;;;;;;;26.60;31.26;99241.30;1722146;82;21014;-82
2022/07/22 08:36:35;;;;;;;8.55;2.12;;;;;;;26.71;31.59;99241.16;1688808;83;21212;-82
2022/07/22 08:39:03;;;;;;;6.92;2.87;;;;;;;26.78;31.07;99239.63;1676436;84;21007;-83
2022/07/22 08:41:36;;;;;;;6.70;3.25;;;;;;;26.88;30.19;99246.31;1711184;83;21614;-83
2022/07/22 08:44:06;;;;;;;7.35;2.60;;;;;;;26.99;30.91;99248.00;1701576;83;21044;-83
2022/07/22 08:46:33;;;;;;;5.28;1.80;;;;;;;27.12;30.68;99248.56;1705363;83;21035;-83
2022/07/22 08:49:06;;;;;;;7.27;2.07;;;;;;;27.14;30.20;99235.92;1646592;83;21053;-83
2022/07/22 08:51:47;;;;;;;5.30;2.30;;;;;;;27.21;30.02;99244.20;1706058;83;21115;-82
2022/07/22 08:54:18;;;;;;;6.60;2.30;;;;;;;27.31;30.05;99235.72;1710004;83;21127;-82
2022/07/22 08:56:50;;;;;;;5.20;2.10;;;;;;;27.43;29.55;99242.25;1691894;84;21060;-81
2022/07/22 08:59:18;;;;;;;4.55;2.08;;;;;;;27.46;29.21;99239.31;1710201;83;21016;-82
2022/07/22 09:02:07;;;;;;;4.35;1.90;;;;;;;27.50;29.38;99237.53;1675553;84;21133;-84
2022/07/22 09:05:02;;;;;;;4.22;2.17;;;;;;;27.62;28.88;99240.05;1693967;83;21107;-81
2022/07/22 09:07:36;;;;;;;5.83;2.22;;;;;;;27.68;28.58;99237.63;1701397;83;21028;-82
2022/07/22 09:10:09;;;;;;;7.95;2.72;;;;;;;27.75;29.15;99232.55;1699329;83;21040;-83
2022/07/22 09:12:53;;;;;;;6.10;2.10;;;;;;;27.91;29.15;99236.84;1670167;84;21082;-81
2022/07/22 09:15:52;;;;;;;5.97;2.30;;;;;;;28.04;28.89;99226.30;1698231;83;21123;-82
2022/07/22 09:18:53;;;;;;;7.10;2.40;;;;;;;28.14;28.01;99227.93;1700566;83;21047;-80
2022/07/22 09:21:24;;;;;;;8.05;2.40;;;;;;;28.24;28.74;99229.73;1700690;83;21041;-79
2022/07/22 09:24:02;;;;;;;5.35;2.50;;;;;;;28.39;28.94;99228.72;1663517;83;21067;-81
2022/07/22 09:26:35;;;;;;;10.80;4.35;;;;;;;28.52;28.90;99230.08;1663465;85;21046;-82
2022/07/22 09:29:20;;;;;;;8.78;3.33;;;;;;;28.64;28.67;99218.67;1656171;85;21176;-81
2022/07/22 09:31:52;;;;;;;7.22;2.75;;;;;;;28.83;28.54;99223.53;1657093;85;21082;-82
2022/07/22 09:34:30;;;;;;;6.75;2.27;;;;;;;28.97;28.58;99221.68;1659843;85;21046;-79
2022/07/22 09:37:00;;;;;;;4.10;2.20;;;;;;;29.14;28.74;99219.50;1672247;83;21070;-81
2022/07/22 09:39:32;;;;;;;4.30;2.30;;;;;;;29.30;28.45;99214.77;1691462;83;21151;-81
2022/07/22 09:42:05;;;;;;;5.00;2.00;;;;;;;29.43;28.17;99214.38;1686233;83;21595;-82
2022/07/22 09:44:32;;;;;;;5.60;2.55;;;;;;;29.50;27.81;99210.06;1690258;83;21041;-82
2022/07/22 09:47:01;;;;;;;7.97;2.50;;;;;;;29.54;26.54;99208.78;1691964;83;21101;-82
2022/07/22 09:49:46;;;;;;;8.65;2.20;;;;;;;29.58;27.21;99211.95;1660565;85;21061;-82
2022/07/22 09:52:21;;;;;;;5.22;2.33;;;;;;;29.70;27.04;99210.69;1692044;83;21676;-82
2022/07/22 09:54:56;;;;;;;6.50;2.10;;;;;;;29.74;27.36;99205.89;1662215;85;21038;-81
2022/07/22 09:57:23;;;;;;;5.58;2.87;;;;;;;29.82;27.54;99201.91;1680135;83;20990;-81
2022/07/22 09:59:50;;;;;;;3.80;2.10;;;;;;;29.97;27.24;99195.97;1688987;83;21093;-82
2022/07/22 10:02:29;;;;;;;3.87;1.90;;;;;;;30.13;26.97;99197.38;1680289;83;21177;-82
2022/07/22 10:04:59;;;;;;;4.45;1.85;;;;;;;30.29;26.08;99194.74;1690127;83;21008;-81
2022/07/22 10:07:27;;;;;;;5.72;1.92;;;;;;;30.38;24.71;99189.43;1677503;83;21050;-82
2022/07/22 10:09:55;;;;;;;7.28;2.00;;;;;;;30.48;25.96;99188.78;1692377;83;21084;-81
2022/07/22 10:12:23;;;;;;;3.90;1.72;;;;;;;30.63;25.96;99176.92;1662503;83;21930;-82
2022/07/22 10:14:50;;;;;;;3.35;1.95;;;;;;;30.83;24.73;99188.18;1693196;83;20994;-81
2022/07/22 10:17:17;;;;;;;3.90;1.52;;;;;;;30.96;24.68;99182.33;1682114;84;21018;-82
2022/07/22 10:19:45;;;;;;;5.55;2.00;;;;;;;31.09;23.66;99182.16;1682566;85;21070;-82
2022/07/22 10:22:47;;;;;;;3.00;1.70;;;;;;;31.16;23.16;99188.20;1689750;84;21564;-81
2022/07/22 10:25:15;;;;;;;3.83;1.62;;;;;;;31.19;22.89;99175.80;1686462;85;21006;-82
2022/07/22 10:27:54;;;;;;;5.72;1.77;;;;;;;31.19;22.20;99180.66;1686993;84;21610;-80
2022/07/22 10:30:32;;;;;;;6.17;3.15;;;;;;;31.22;22.69;99167.41;1687029;83;21001;-82
2022/07/22 10:33:09;;;;;;;4.08;1.52;;;;;;;31.28;21.99;99169.41;1684155;83;22205;-83
2022/07/22 10:35:59;;;;;;;4.58;1.62;;;;;;;31.30;21.61;99163.37;1683348;83;21110;-83
2022/07/22 10:38:28;;;;;;;2.65;1.52;;;;;;;31.32;20.88;99168.06;1685222;83;21504;-82
2022/07/22 10:41:00;;;;;;;4.45;1.82;;;;;;;31.32;22.04;99146.06;1685263;83;21034;-80
2022/07/22 10:43:41;;;;;;;3.92;1.90;;;;;;;31.56;22.12;99148.91;1691780;83;21141;-80
2022/07/22 10:46:09;;;;;;;6.03;2.20;;;;;;;31.71;21.82;99150.71;1688801;83;21025;-80
2022/07/22 10:48:41;;;;;;;4.97;1.90;;;;;;;31.89;21.67;99153.16;1698819;83;20990;-80
2022/07/22 10:51:14;;;;;;;2.83;1.67;;;;;;;32.10;21.38;99155.27;1682639;85;21019;-82
2022/07/22 10:54:02;;;;;;;3.00;1.80;;;;;;;32.29;21.62;99159.38;1682296;84;21098;-83
2022/07/22 10:56:31;;;;;;;4.53;1.80;;;;;;;32.48;21.37;99149.16;1661454;83;21040;-80
2022/07/22 10:59:02;;;;;;;3.87;1.92;;;;;;;32.69;21.25;99145.35;1686371;83;21030;-82
2022/07/22 11:01:31;;;;;;;4.70;1.80;;;;;;;32.83;20.39;99141.55;1667984;85;21522;-82
2022/07/22 11:04:23;;;;;;;4.17;1.95;;;;;;;32.91;20.82;99140.13;1666177;85;21614;-80
2022/07/22 11:06:52;;;;;;;4.80;1.95;;;;;;;33.05;20.89;99135.80;1657319;85;21556;-81
2022/07/22 11:09:23;;;;;;;5.35;1.80;;;;;;;33.18;20.24;99133.84;1658060;85;21151;-81
2022/07/22 11:11:53;;;;;;;3.80;2.05;;;;;;;33.26;20.21;99130.55;1679584;83;21043;-82
2022/07/22 11:14:33;;;;;;;3.95;2.20;;;;;;;33.41;20.73;99128.41;1688153;85;21049;-82
2022/07/22 11:17:09;;;;;;;5.42;2.05;;;;;;;33.52;20.22;99125.75;1692439;83;21006;-80
2022/07/22 11:19:38;;;;;;;3.60;1.90;;;;;;;33.57;20.22;99117.95;1675061;85;21086;-81
2022/07/22 11:22:09;;;;;;;4.15;1.92;;;;;;;33.66;20.12;99125.79;1719325;82;21083;-83
2022/07/22 11:24:37;;;;;;;3.47;1.50;;;;;;;33.71;20.20;99114.44;1715212;82;21085;-81
2022/07/22 11:27:10;;;;;;;3.37;1.72;;;;;;;33.85;20.38;99112.74;1721414;82;20966;-84
2022/07/22 11:29:40;;;;;;;3.62;1.80;;;;;;;34.00;19.80;99111.35;1722640;82;21034;-80
2022/07/22 11:32:10;;;;;;;3.90;2.00;;;;;;;34.07;19.83;99107.71;1722307;82;21513;-81
2022/07/22 11:34:45;;;;;;;3.98;2.00;;;;;;;34.19;19.81;99101.34;1733177;82;21018;-81
2022/07/22 11:37:17;;;;;;;3.77;1.72;;;;;;;34.36;19.81;99101.95;1714575;82;21079;-83
2022/07/22 11:39:44;;;;;;;5.08;2.00;;;;;;;34.57;19.94;99104.31;1701251;83;21050;-86
2022/07/22 11:42:10;;;;;;;5.62;2.10;;;;;;;34.76;19.40;99098.78;1699970;83;21018;-82